sensor_id;sensor_type;location;lat;lon;timestamp;pressure;altitude;pressure_sealevel;temperature;humidity
35443;BME280;21561;55.654;37.592;2023-01-29T00:01:57;99512.41;;;-3.28;100.00
35443;BME280;21561;55.654;37.592;2023-01-29T00:04:24;99511.06;;;-3.39;100.00
35443;BME280;21561;55.654;37.592;2023-01-29T00:06:50;99510.25;;;-3.38;100.00
35443;BME280;21561;55.654;37.592;2023-01-29T00:09:17;99508.38;;;-3.42;100.00
35443;BME280;21561;55.654;37.592;2023-01-29T00:11:44;99511.06;;;-3.39;100.00
35443;BME280;21561;55.654;37.592;2023-01-29T00:14:12;99516.25;;;-3.36;100.00
35443;BME280;21561;55.654;37.592;2023-01-29T00:16:39;99518.81;;;-3.36;100.00
35443;BME280;21561;55.654;37.592;2023-01-29T00:19:06;99507.88;;;-3.35;100.00
35443;BME280;21561;55.654;37.592;2023-01-29T00:21:33;99517.22;;;-3.34;100.00
35443;BME280;21561;55.654;37.592;2023-01-29T00:24:00;99507.88;;;-3.35;100.00
35443;BME280;21561;55.654;37.592;2023-01-29T00:26:27;99507.94;;;-3.33;100.00
35443;BME280;21561;55.654;37.592;2023-01-29T00:28:54;99500.41;;;-3.32;100.00
35443;BME280;21561;55.654;37.592;2023-01-29T00:31:23;99504.81;;;-3.28;100.00
35443;BME280;21561;55.654;37.592;2023-01-29T00:33:51;99497.19;;;-3.28;100.00
35443;BME280;21561;55.654;37.592;2023-01-29T00:36:19;99502.41;;;-3.24;100.00
35443;BME280;21561;55.654;37.592;2023-01-29T00:38:52;99503.06;;;-3.29;100.00
35443;BME280;21561;55.654;37.592;2023-01-29T00:41:29;99487.03;;;-3.28;100.00
35443;BME280;21561;55.654;37.592;2023-01-29T00:44:15;99486.91;;;-3.31;100.00
35443;BME280;21561;55.654;37.592;2023-01-29T00:47:01;99485.97;;;-3.33;100.00
35443;BME280;21561;55.654;37.592;2023-01-29T00:49:28;99481.81;;;-3.31;100.00
35443;BME280;21561;55.654;37.592;2023-01-29T00:51:56;99479.44;;;-3.28;100.00
35443;BME280;21561;55.654;37.592;2023-01-29T00:54:41;99469.44;;;-3.24;100.00
35443;BME280;21561;55.654;37.592;2023-01-29T00:57:08;99478.75;;;-3.23;100.00
35443;BME280;21561;55.654;37.592;2023-01-29T00:59:34;99473.69;;;-3.23;100.00
35443;BME280;21561;55.654;37.592;2023-01-29T01:02:01;99478.91;;;-3.20;100.00
35443;BME280;21561;55.654;37.592;2023-01-29T01:04:47;99480.69;;;-3.18;100.00
35443;BME280;21561;55.654;37.592;2023-01-29T01:07:13;99482.22;;;-3.21;100.00
35443;BME280;21561;55.654;37.592;2023-01-29T01:09:40;99489.44;;;-3.31;100.00
35443;BME280;21561;55.654;37.592;2023-01-29T01:12:27;99489.94;;;-3.38;100.00
35443;BME280;21561;55.654;37.592;2023-01-29T01:14:54;99482.16;;;-3.42;100.00
35443;BME280;21561;55.654;37.592;2023-01-29T01:17:21;99469.53;;;-3.41;100.00
35443;BME280;21561;55.654;37.592;2023-01-29T01:19:48;99481.25;;;-3.43;100.00
35443;BME280;21561;55.654;37.592;2023-01-29T01:22:15;99475.25;;;-3.45;100.00
35443;BME280;21561;55.654;37.592;2023-01-29T01:24:42;99481.13;;;-3.46;100.00
35443;BME280;21561;55.654;37.592;2023-01-29T01:27:09;99486.91;;;-3.49;100.00
35443;BME280;21561;55.654;37.592;2023-01-29T01:29:36;99488.28;;;-3.55;100.00
35443;BME280;21561;55.654;37.592;2023-01-29T01:32:04;99495.78;;;-3.58;100.00
35443;BME280;21561;55.654;37.592;2023-01-29T01:34:31;99489.56;;;-3.65;100.00
35443;BME280;21561;55.654;37.592;2023-01-29T01:36:58;99488.69;;;-3.66;100.00
35443;BME280;21561;55.654;37.592;2023-01-29T01:39:25;99478.47;;;-3.67;100.00
35443;BME280;21561;55.654;37.592;2023-01-29T01:41:53;99476.00;;;-3.66;100.00
35443;BME280;21561;55.654;37.592;2023-01-29T01:47:32;99483.22;;;-3.73;100.00
35443;BME280;21561;55.654;37.592;2023-01-29T01:50:08;99476.22;;;-3.79;100.00
35443;BME280;21561;55.654;37.592;2023-01-29T01:52:40;99480.84;;;-3.88;100.00
35443;BME280;21561;55.654;37.592;2023-01-29T01:55:09;99469.00;;;-3.89;100.00
35443;BME280;21561;55.654;37.592;2023-01-29T01:57:39;99469.69;;;-3.92;100.00
35443;BME280;21561;55.654;37.592;2023-01-29T02:00:09;99471.44;;;-3.91;99.31
35443;BME280;21561;55.654;37.592;2023-01-29T02:02:41;99473.91;;;-3.92;99.06
35443;BME280;21561;55.654;37.592;2023-01-29T02:05:28;99456.25;;;-3.91;98.88
35443;BME280;21561;55.654;37.592;2023-01-29T02:08:38;99447.22;;;-3.84;98.91
35443;BME280;21561;55.654;37.592;2023-01-29T02:11:22;99457.38;;;-3.84;98.36
35443;BME280;21561;55.654;37.592;2023-01-29T02:13:50;99460.56;;;-3.88;94.53
35443;BME280;21561;55.654;37.592;2023-01-29T02:16:20;99449.56;;;-3.89;94.56
35443;BME280;21561;55.654;37.592;2023-01-29T02:18:48;99440.28;;;-3.88;95.41
35443;BME280;21561;55.654;37.592;2023-01-29T02:24:20;99443.63;;;-3.71;94.77
35443;BME280;21561;55.654;37.592;2023-01-29T02:27:18;99441.03;;;-3.73;92.79
35443;BME280;21561;55.654;37.592;2023-01-29T02:30:05;99434.19;;;-3.74;92.80
35443;BME280;21561;55.654;37.592;2023-01-29T02:32:57;99425.66;;;-3.76;92.18
35443;BME280;21561;55.654;37.592;2023-01-29T02:35:32;99426.44;;;-3.77;92.67
35443;BME280;21561;55.654;37.592;2023-01-29T02:38:28;99419.13;;;-3.71;93.42
35443;BME280;21561;55.654;37.592;2023-01-29T02:41:01;99409.78;;;-3.72;92.50
35443;BME280;21561;55.654;37.592;2023-01-29T02:43:45;99416.53;;;-3.72;91.73
35443;BME280;21561;55.654;37.592;2023-01-29T02:49:05;99412.91;;;-3.77;91.08
35443;BME280;21561;55.654;37.592;2023-01-29T02:52:13;99399.50;;;-3.75;90.45
35443;BME280;21561;55.654;37.592;2023-01-29T02:55:12;99394.69;;;-3.69;91.64
35443;BME280;21561;55.654;37.592;2023-01-29T02:57:43;99395.91;;;-3.80;91.21
35443;BME280;21561;55.654;37.592;2023-01-29T03:00:18;99389.88;;;-3.82;91.21
35443;BME280;21561;55.654;37.592;2023-01-29T03:03:03;99376.41;;;-3.81;91.65
35443;BME280;21561;55.654;37.592;2023-01-29T03:08:30;99378.78;;;-3.84;91.38
35443;BME280;21561;55.654;37.592;2023-01-29T03:11:10;99382.81;;;-3.89;91.13
35443;BME280;21561;55.654;37.592;2023-01-29T03:13:43;99367.72;;;-3.86;91.22
35443;BME280;21561;55.654;37.592;2023-01-29T03:16:34;99366.25;;;-3.81;91.15
35443;BME280;21561;55.654;37.592;2023-01-29T03:19:31;99364.94;;;-3.73;91.50
35443;BME280;21561;55.654;37.592;2023-01-29T03:22:03;99358.78;;;-3.78;90.82
35443;BME280;21561;55.654;37.592;2023-01-29T03:24:39;99356.53;;;-3.72;91.44
35443;BME280;21561;55.654;37.592;2023-01-29T03:27:30;99357.13;;;-3.77;90.13
35443;BME280;21561;55.654;37.592;2023-01-29T03:30:18;99349.59;;;-3.76;91.09
35443;BME280;21561;55.654;37.592;2023-01-29T03:33:06;99351.03;;;-3.81;90.10
35443;BME280;21561;55.654;37.592;2023-01-29T03:35:39;99340.75;;;-3.84;89.62
35443;BME280;21561;55.654;37.592;2023-01-29T03:38:10;99337.44;;;-3.83;89.58
35443;BME280;21561;55.654;37.592;2023-01-29T03:40:46;99333.59;;;-3.75;90.96
35443;BME280;21561;55.654;37.592;2023-01-29T03:43:28;99332.63;;;-3.77;91.30
35443;BME280;21561;55.654;37.592;2023-01-29T03:49:25;99312.22;;;-3.80;92.77
35443;BME280;21561;55.654;37.592;2023-01-29T03:52:10;99312.22;;;-3.80;93.20
35443;BME280;21561;55.654;37.592;2023-01-29T04:03:25;99291.94;;;-3.80;93.78
35443;BME280;21561;55.654;37.592;2023-01-29T04:08:34;99293.84;;;-3.94;94.20
35443;BME280;21561;55.654;37.592;2023-01-29T04:11:09;99281.25;;;-3.92;94.38
35443;BME280;21561;55.654;37.592;2023-01-29T04:13:38;99282.84;;;-3.94;94.54
35443;BME280;21561;55.654;37.592;2023-01-29T04:16:09;99284.47;;;-3.96;94.09
35443;BME280;21561;55.654;37.592;2023-01-29T04:18:38;99287.84;;;-3.96;94.63
35443;BME280;21561;55.654;37.592;2023-01-29T04:21:05;99280.25;;;-3.96;94.55
35443;BME280;21561;55.654;37.592;2023-01-29T04:23:34;99282.31;;;-4.07;93.50
35443;BME280;21561;55.654;37.592;2023-01-29T04:26:22;99272.41;;;-4.00;94.00
35443;BME280;21561;55.654;37.592;2023-01-29T04:31:30;99279.25;;;-3.99;94.40
35443;BME280;21561;55.654;37.592;2023-01-29T04:34:18;99278.72;;;-3.92;94.92
35443;BME280;21561;55.654;37.592;2023-01-29T04:37:20;99275.44;;;-3.90;95.23
35443;BME280;21561;55.654;37.592;2023-01-29T04:39:57;99271.81;;;-3.95;95.75
35443;BME280;21561;55.654;37.592;2023-01-29T04:42:35;99269.25;;;-3.96;95.80
35443;BME280;21561;55.654;37.592;2023-01-29T04:45:21;99269.97;;;-3.99;95.55
35443;BME280;21561;55.654;37.592;2023-01-29T04:53:52;99264.47;;;-4.08;95.83
35443;BME280;21561;55.654;37.592;2023-01-29T04:59:02;99265.50;;;-4.05;96.16
35443;BME280;21561;55.654;37.592;2023-01-29T05:01:32;99255.94;;;-4.10;96.30
35443;BME280;21561;55.654;37.592;2023-01-29T05:04:07;99259.34;;;-4.10;95.93
35443;BME280;21561;55.654;37.592;2023-01-29T05:06:35;99256.88;;;-4.08;96.04
35443;BME280;21561;55.654;37.592;2023-01-29T05:09:03;99245.88;;;-4.09;96.13
35443;BME280;21561;55.654;37.592;2023-01-29T05:11:34;99235.81;;;-4.07;96.04
35443;BME280;21561;55.654;37.592;2023-01-29T05:14:03;99246.81;;;-4.07;96.38
35443;BME280;21561;55.654;37.592;2023-01-29T05:16:42;99247.91;;;-4.01;96.51
35443;BME280;21561;55.654;37.592;2023-01-29T05:19:13;99256.28;;;-4.03;96.02
35443;BME280;21561;55.654;37.592;2023-01-29T05:21:44;99250.28;;;-4.05;96.13
35443;BME280;21561;55.654;37.592;2023-01-29T05:24:23;99252.03;;;-4.04;96.02
35443;BME280;21561;55.654;37.592;2023-01-29T05:26:52;99244.22;;;-4.08;95.70
35443;BME280;21561;55.654;37.592;2023-01-29T05:29:44;99257.09;;;-4.04;96.00
35443;BME280;21561;55.654;37.592;2023-01-29T05:32:11;99253.69;;;-4.04;95.70
35443;BME280;21561;55.654;37.592;2023-01-29T05:34:38;99253.69;;;-4.04;95.95
35443;BME280;21561;55.654;37.592;2023-01-29T05:37:05;99257.88;;;-4.05;96.31
35443;BME280;21561;55.654;37.592;2023-01-29T05:39:32;99264.63;;;-4.05;96.13
35443;BME280;21561;55.654;37.592;2023-01-29T05:41:59;99257.03;;;-4.05;95.89
35443;BME280;21561;55.654;37.592;2023-01-29T05:44:26;99256.28;;;-4.03;96.09
35443;BME280;21561;55.654;37.592;2023-01-29T05:46:53;99250.13;;;-4.08;95.78
35443;BME280;21561;55.654;37.592;2023-01-29T05:49:20;99258.41;;;-4.12;95.96
35443;BME280;21561;55.654;37.592;2023-01-29T05:51:48;99258.41;;;-4.12;96.21
35443;BME280;21561;55.654;37.592;2023-01-29T05:54:14;99262.69;;;-4.11;96.08
35443;BME280;21561;55.654;37.592;2023-01-29T05:56:41;99259.19;;;-4.13;96.23
35443;BME280;21561;55.654;37.592;2023-01-29T05:59:08;99260.16;;;-4.11;96.66
35443;BME280;21561;55.654;37.592;2023-01-29T06:01:35;99255.03;;;-3.93;97.05
35443;BME280;21561;55.654;37.592;2023-01-29T06:04:02;99247.63;;;-3.88;96.83
35443;BME280;21561;55.654;37.592;2023-01-29T06:06:29;99265.69;;;-3.80;96.22
35443;BME280;21561;55.654;37.592;2023-01-29T06:08:56;99268.44;;;-3.76;97.46
35443;BME280;21561;55.654;37.592;2023-01-29T06:11:23;99263.91;;;-3.63;97.85
35443;BME280;21561;55.654;37.592;2023-01-29T06:13:50;99269.66;;;-3.48;98.35
35443;BME280;21561;55.654;37.592;2023-01-29T06:16:17;99256.28;;;-3.44;96.55
35443;BME280;21561;55.654;37.592;2023-01-29T06:18:44;99262.19;;;-3.24;97.31
35443;BME280;21561;55.654;37.592;2023-01-29T06:21:12;99264.63;;;-2.85;98.37
35443;BME280;21561;55.654;37.592;2023-01-29T06:23:40;99254.78;;;-2.77;93.63
35443;BME280;21561;55.654;37.592;2023-01-29T06:26:10;99247.06;;;-2.13;93.79
35443;BME280;21561;55.654;37.592;2023-01-29T06:28:37;99240.22;;;-2.15;87.70
35443;BME280;21561;55.654;37.592;2023-01-29T06:31:06;99241.22;;;-2.55;87.71
35443;BME280;21561;55.654;37.592;2023-01-29T06:33:53;99241.09;;;-3.02;88.55
35443;BME280;21561;55.654;37.592;2023-01-29T06:36:20;99240.47;;;-3.17;90.71
35443;BME280;21561;55.654;37.592;2023-01-29T06:38:47;99243.44;;;-3.28;91.89
35443;BME280;21561;55.654;37.592;2023-01-29T06:41:18;99243.19;;;-3.34;92.62
35443;BME280;21561;55.654;37.592;2023-01-29T06:43:45;99233.78;;;-3.36;92.19
35443;BME280;21561;55.654;37.592;2023-01-29T06:46:13;99242.16;;;-3.58;93.20
35443;BME280;21561;55.654;37.592;2023-01-29T06:48:40;99237.69;;;-3.64;93.61
35443;BME280;21561;55.654;37.592;2023-01-29T06:51:08;99234.41;;;-3.61;94.18
35443;BME280;21561;55.654;37.592;2023-01-29T06:53:37;99243.56;;;-3.65;93.79
35443;BME280;21561;55.654;37.592;2023-01-29T06:56:05;99239.25;;;-3.66;94.33
35443;BME280;21561;55.654;37.592;2023-01-29T06:58:35;99240.25;;;-3.62;93.74
35443;BME280;21561;55.654;37.592;2023-01-29T07:01:08;99227.59;;;-3.62;93.57
35443;BME280;21561;55.654;37.592;2023-01-29T07:03:36;99222.19;;;-3.70;93.64
35443;BME280;21561;55.654;37.592;2023-01-29T07:06:03;99221.47;;;-3.68;94.10
35443;BME280;21561;55.654;37.592;2023-01-29T07:08:30;99207.28;;;-3.62;94.44
35443;BME280;21561;55.654;37.592;2023-01-29T07:10:59;99211.59;;;-3.61;94.06
35443;BME280;21561;55.654;37.592;2023-01-29T07:13:27;99204.50;;;-3.69;94.17
35443;BME280;21561;55.654;37.592;2023-01-29T07:16:01;99197.13;;;-3.64;94.56
35443;BME280;21561;55.654;37.592;2023-01-29T07:18:29;99201.06;;;-3.71;94.44
35443;BME280;21561;55.654;37.592;2023-01-29T07:20:56;99214.19;;;-3.79;94.49
35443;BME280;21561;55.654;37.592;2023-01-29T07:23:23;99210.91;;;-3.77;95.34
35443;BME280;21561;55.654;37.592;2023-01-29T07:25:50;99210.06;;;-3.77;95.33
35443;BME280;21561;55.654;37.592;2023-01-29T07:28:18;99216.00;;;-3.77;95.19
35443;BME280;21561;55.654;37.592;2023-01-29T07:30:46;99208.38;;;-3.77;95.18
35443;BME280;21561;55.654;37.592;2023-01-29T07:33:13;99207.59;;;-3.76;95.28
35443;BME280;21561;55.654;37.592;2023-01-29T07:35:41;99204.28;;;-3.75;95.73
35443;BME280;21561;55.654;37.592;2023-01-29T07:38:09;99202.66;;;-3.73;95.58
35443;BME280;21561;55.654;37.592;2023-01-29T07:40:37;99204.50;;;-3.69;95.51
35443;BME280;21561;55.654;37.592;2023-01-29T07:43:05;99208.13;;;-3.63;95.54
35443;BME280;21561;55.654;37.592;2023-01-29T07:45:37;99199.69;;;-3.62;95.58
35443;BME280;21561;55.654;37.592;2023-01-29T07:48:05;99200.59;;;-3.62;95.67
35443;BME280;21561;55.654;37.592;2023-01-29T07:50:34;99200.59;;;-3.62;95.34
35443;BME280;21561;55.654;37.592;2023-01-29T07:53:01;99208.34;;;-3.57;95.51
35443;BME280;21561;55.654;37.592;2023-01-29T07:55:29;99196.38;;;-3.61;95.45
35443;BME280;21561;55.654;37.592;2023-01-29T07:58:00;99196.59;;;-3.55;95.39
35443;BME280;21561;55.654;37.592;2023-01-29T08:04:16;99173.00;;;-3.54;94.18
35443;BME280;21561;55.654;37.592;2023-01-29T08:06:42;99170.31;;;-3.57;94.68
35443;BME280;21561;55.654;37.592;2023-01-29T08:09:09;99179.53;;;-3.59;94.96
35443;BME280;21561;55.654;37.592;2023-01-29T08:11:36;99186.34;;;-3.58;94.77
35443;BME280;21561;55.654;37.592;2023-01-29T08:14:03;99185.47;;;-3.59;94.07
35443;BME280;21561;55.654;37.592;2023-01-29T08:16:30;99178.69;;;-3.60;93.50
35443;BME280;21561;55.654;37.592;2023-01-29T08:18:57;99169.38;;;-3.59;93.65
35443;BME280;21561;55.654;37.592;2023-01-29T08:21:56;99162.91;;;-3.53;93.93
35443;BME280;21561;55.654;37.592;2023-01-29T08:24:23;99162.84;;;-3.54;91.95
35443;BME280;21561;55.654;37.592;2023-01-29T08:27:07;99156.03;;;-3.55;91.56
35443;BME280;21561;55.654;37.592;2023-01-29T08:29:34;99154.53;;;-3.50;91.43
35443;BME280;21561;55.654;37.592;2023-01-29T08:32:10;99163.56;;;-3.37;91.33
35443;BME280;21561;55.654;37.592;2023-01-29T08:34:38;99152.72;;;-3.33;91.36
35443;BME280;21561;55.654;37.592;2023-01-29T08:37:05;99151.97;;;-3.31;90.84
35443;BME280;21561;55.654;37.592;2023-01-29T08:39:31;99150.41;;;-3.27;90.48
35443;BME280;21561;55.654;37.592;2023-01-29T08:42:00;99152.09;;;-3.28;89.81
35443;BME280;21561;55.654;37.592;2023-01-29T08:44:26;99157.03;;;-3.31;89.91
35443;BME280;21561;55.654;37.592;2023-01-29T08:46:53;99163.72;;;-3.33;89.28
35443;BME280;21561;55.654;37.592;2023-01-29T08:49:20;99170.63;;;-3.29;88.63
35443;BME280;21561;55.654;37.592;2023-01-29T08:51:47;99166.47;;;-3.28;87.63
35443;BME280;21561;55.654;37.592;2023-01-29T08:54:14;99164.84;;;-3.26;88.20
35443;BME280;21561;55.654;37.592;2023-01-29T08:56:41;99154.56;;;-3.29;88.09
35443;BME280;21561;55.654;37.592;2023-01-29T08:59:09;99146.25;;;-3.25;88.34
35443;BME280;21561;55.654;37.592;2023-01-29T09:01:35;99147.81;;;-3.29;88.13
35443;BME280;21561;55.654;37.592;2023-01-29T09:04:02;99140.44;;;-3.22;89.02
35443;BME280;21561;55.654;37.592;2023-01-29T09:06:29;99141.56;;;-3.16;88.63
35443;BME280;21561;55.654;37.592;2023-01-29T09:08:56;99138.16;;;-3.16;87.85
35443;BME280;21561;55.654;37.592;2023-01-29T09:11:23;99137.22;;;-3.18;87.63
35443;BME280;21561;55.654;37.592;2023-01-29T09:13:50;99133.91;;;-3.17;87.16
35443;BME280;21561;55.654;37.592;2023-01-29T09:16:16;99140.59;;;-3.19;87.30
35443;BME280;21561;55.654;37.592;2023-01-29T09:18:43;99141.38;;;-3.20;87.82
35443;BME280;21561;55.654;37.592;2023-01-29T09:21:10;99142.78;;;-3.27;87.33
35443;BME280;21561;55.654;37.592;2023-01-29T09:23:37;99141.81;;;-3.31;87.95
35443;BME280;21561;55.654;37.592;2023-01-29T09:26:06;99142.06;;;-3.24;88.38
35443;BME280;21561;55.654;37.592;2023-01-29T09:28:33;99132.78;;;-3.24;87.75
35443;BME280;21561;55.654;37.592;2023-01-29T09:31:01;99140.44;;;-3.22;87.74
35443;BME280;21561;55.654;37.592;2023-01-29T09:33:28;99138.03;;;-3.19;87.62
35443;BME280;21561;55.654;37.592;2023-01-29T09:35:56;99127.91;;;-3.19;87.44
35443;BME280;21561;55.654;37.592;2023-01-29T09:38:23;99111.84;;;-3.18;87.06
35443;BME280;21561;55.654;37.592;2023-01-29T09:40:59;99109.66;;;-3.09;87.87
35443;BME280;21561;55.654;37.592;2023-01-29T09:43:44;99102.03;;;-3.09;87.66
35443;BME280;21561;55.654;37.592;2023-01-29T09:46:24;99097.47;;;-3.18;87.49
35443;BME280;21561;55.654;37.592;2023-01-29T09:49:00;99095.00;;;-3.16;87.50
35443;BME280;21561;55.654;37.592;2023-01-29T09:51:39;99097.78;;;-3.10;87.60
35443;BME280;21561;55.654;37.592;2023-01-29T09:56:36;99095.25;;;-3.10;87.68
35443;BME280;21561;55.654;37.592;2023-01-29T09:59:03;99090.28;;;-3.07;87.64
35443;BME280;21561;55.654;37.592;2023-01-29T10:25:38;99050.56;;;-3.07;86.42
35443;BME280;21561;55.654;37.592;2023-01-29T10:31:31;99026.41;;;-2.95;86.84
35443;BME280;21561;55.654;37.592;2023-01-29T10:34:40;99017.19;;;-2.93;86.91
35443;BME280;21561;55.654;37.592;2023-01-29T10:37:17;99005.34;;;-2.93;86.75
35443;BME280;21561;55.654;37.592;2023-01-29T10:39:44;98995.91;;;-2.97;86.50
35443;BME280;21561;55.654;37.592;2023-01-29T10:42:23;98992.66;;;-2.93;86.74
35443;BME280;21561;55.654;37.592;2023-01-29T10:50:58;98983.00;;;-2.79;86.65
35443;BME280;21561;55.654;37.592;2023-01-29T10:56:10;98982.94;;;-2.80;86.12
35443;BME280;21561;55.654;37.592;2023-01-29T10:58:58;98977.75;;;-2.83;86.03
35443;BME280;21561;55.654;37.592;2023-01-29T11:01:27;98974.19;;;-2.89;86.29
35443;BME280;21561;55.654;37.592;2023-01-29T11:03:58;98976.13;;;-2.81;86.54
35443;BME280;21561;55.654;37.592;2023-01-29T11:06:32;98983.91;;;-2.77;86.67
35443;BME280;21561;55.654;37.592;2023-01-29T11:09:33;98967.81;;;-2.77;86.56
35443;BME280;21561;55.654;37.592;2023-01-29T11:12:31;98962.63;;;-2.80;86.83
35443;BME280;21561;55.654;37.592;2023-01-29T11:16:04;98955.84;;;-2.81;87.02
35443;BME280;21561;55.654;37.592;2023-01-29T11:25:56;98957.09;;;-2.93;87.24
35443;BME280;21561;55.654;37.592;2023-01-29T11:28:49;98959.31;;;-3.02;87.63
35443;BME280;21561;55.654;37.592;2023-01-29T11:33:47;98955.06;;;-3.03;87.83
35443;BME280;21561;55.654;37.592;2023-01-29T11:36:21;98948.56;;;-2.95;87.66
35443;BME280;21561;55.654;37.592;2023-01-29T11:39:10;98953.00;;;-2.89;87.53
35443;BME280;21561;55.654;37.592;2023-01-29T11:41:55;98950.50;;;-2.88;87.54
35443;BME280;21561;55.654;37.592;2023-01-29T11:44:35;98936.38;;;-2.81;88.01
35443;BME280;21561;55.654;37.592;2023-01-29T11:47:14;98950.84;;;-2.78;87.32
35443;BME280;21561;55.654;37.592;2023-01-29T11:49:49;98945.88;;;-2.75;86.90
35443;BME280;21561;55.654;37.592;2023-01-29T11:52:19;98940.91;;;-2.72;87.42
35443;BME280;21561;55.654;37.592;2023-01-29T11:54:55;98930.44;;;-2.81;86.85
35443;BME280;21561;55.654;37.592;2023-01-29T11:57:33;98944.75;;;-2.83;87.42
35443;BME280;21561;55.654;37.592;2023-01-29T12:00:12;98936.25;;;-2.84;87.32
35443;BME280;21561;55.654;37.592;2023-01-29T12:03:11;98933.84;;;-2.81;87.96
35443;BME280;21561;55.654;37.592;2023-01-29T12:05:40;98940.03;;;-2.97;87.94
35443;BME280;21561;55.654;37.592;2023-01-29T12:08:19;98939.19;;;-2.97;88.21
35443;BME280;21561;55.654;37.592;2023-01-29T12:10:48;98928.19;;;-2.98;88.56
35443;BME280;21561;55.654;37.592;2023-01-29T12:13:26;98936.16;;;-2.87;88.77
35443;BME280;21561;55.654;37.592;2023-01-29T12:16:14;98922.75;;;-2.83;88.73
35443;BME280;21561;55.654;37.592;2023-01-29T12:18:49;98916.91;;;-2.80;88.78
35443;BME280;21561;55.654;37.592;2023-01-29T12:21:19;98921.19;;;-2.79;88.81
35443;BME280;21561;55.654;37.592;2023-01-29T12:24:11;98925.44;;;-2.78;88.24
35443;BME280;21561;55.654;37.592;2023-01-29T12:30:11;98919.41;;;-2.82;88.29
35443;BME280;21561;55.654;37.592;2023-01-29T12:32:51;98911.84;;;-2.80;88.84
35443;BME280;21561;55.654;37.592;2023-01-29T12:35:44;98923.19;;;-2.71;89.21
35443;BME280;21561;55.654;37.592;2023-01-29T12:38:21;98918.97;;;-2.70;89.06
35443;BME280;21561;55.654;37.592;2023-01-29T12:40:52;98910.44;;;-2.72;89.11
35443;BME280;21561;55.654;37.592;2023-01-29T12:43:31;98918.19;;;-2.67;89.39
35443;BME280;21561;55.654;37.592;2023-01-29T12:46:02;98918.78;;;-2.76;89.61
35443;BME280;21561;55.654;37.592;2023-01-29T12:48:33;98924.53;;;-2.80;90.18
35443;BME280;21561;55.654;37.592;2023-01-29T12:51:07;98916.91;;;-2.80;90.33
35443;BME280;21561;55.654;37.592;2023-01-29T12:54:11;98916.91;;;-2.80;90.64
35443;BME280;21561;55.654;37.592;2023-01-29T12:56:33;98911.78;;;-2.82;90.48
35443;BME280;21561;55.654;37.592;2023-01-29T12:59:23;98914.50;;;-2.77;91.03
35443;BME280;21561;55.654;37.592;2023-01-29T13:02:01;98925.34;;;-2.81;90.87
35443;BME280;21561;55.654;37.592;2023-01-29T13:04:36;98915.09;;;-2.84;91.18
35443;BME280;21561;55.654;37.592;2023-01-29T13:07:11;98916.59;;;-2.90;91.46
35443;BME280;21561;55.654;37.592;2023-01-29T13:09:42;98920.06;;;-2.88;91.75
35443;BME280;21561;55.654;37.592;2023-01-29T13:12:17;98912.53;;;-2.84;91.63
35443;BME280;21561;55.654;37.592;2023-01-29T13:15:16;98910.31;;;-2.75;92.28
35443;BME280;21561;55.654;37.592;2023-01-29T13:17:54;98910.97;;;-2.81;91.50
35443;BME280;21561;55.654;37.592;2023-01-29T13:20:25;98900.88;;;-2.79;91.78
35443;BME280;21561;55.654;37.592;2023-01-29T13:23:02;98901.63;;;-2.82;91.41
35443;BME280;21561;55.654;37.592;2023-01-29T13:25:30;98896.59;;;-2.80;91.56
35443;BME280;21561;55.654;37.592;2023-01-29T13:27:56;98892.34;;;-2.81;91.68
35443;BME280;21561;55.654;37.592;2023-01-29T13:30:29;98892.50;;;-2.77;92.09
35443;BME280;21561;55.654;37.592;2023-01-29T13:32:59;98898.34;;;-2.79;91.79
35443;BME280;21561;55.654;37.592;2023-01-29T13:35:41;98895.19;;;-2.72;93.06
35443;BME280;21561;55.654;37.592;2023-01-29T13:38:26;98896.22;;;-2.67;92.61
35443;BME280;21561;55.654;37.592;2023-01-29T13:40:58;98897.63;;;-2.75;92.39
35443;BME280;21561;55.654;37.592;2023-01-29T13:43:32;98894.13;;;-2.79;92.34
35443;BME280;21561;55.654;37.592;2023-01-29T13:46:15;98894.88;;;-2.81;92.49
35443;BME280;21561;55.654;37.592;2023-01-29T13:48:47;98889.69;;;-2.84;92.84
35443;BME280;21561;55.654;37.592;2023-01-29T13:51:20;98884.63;;;-2.84;92.79
35443;BME280;21561;55.654;37.592;2023-01-29T13:54:00;98887.97;;;-2.85;93.07
35443;BME280;21561;55.654;37.592;2023-01-29T13:59:03;98881.06;;;-2.90;93.42
35443;BME280;21561;55.654;37.592;2023-01-29T14:07:00;98871.06;;;-2.59;95.09
35443;BME280;21561;55.654;37.592;2023-01-29T14:15:13;98880.94;;;-2.69;92.98
35443;BME280;21561;55.654;37.592;2023-01-29T14:20:33;98863.50;;;-2.83;94.02
35443;BME280;21561;55.654;37.592;2023-01-29T14:23:26;98860.84;;;-2.86;94.69
35443;BME280;21561;55.654;37.592;2023-01-29T14:25:55;98853.84;;;-2.94;95.03
35443;BME280;21561;55.654;37.592;2023-01-29T14:28:25;98850.41;;;-2.96;95.77
35443;BME280;21561;55.654;37.592;2023-01-29T14:30:54;98852.88;;;-2.97;95.74
35443;BME280;21561;55.654;37.592;2023-01-29T14:33:34;98847.03;;;-2.95;95.99
35443;BME280;21561;55.654;37.592;2023-01-29T14:36:13;98839.16;;;-3.02;96.55
35443;BME280;21561;55.654;37.592;2023-01-29T14:38:47;98849.44;;;-2.99;96.49
35443;BME280;21561;55.654;37.592;2023-01-29T14:41:38;98855.56;;;-2.93;96.47
35443;BME280;21561;55.654;37.592;2023-01-29T14:47:20;98856.03;;;-3.04;96.97
35443;BME280;21561;55.654;37.592;2023-01-29T14:49:54;98847.56;;;-3.05;97.23
35443;BME280;21561;55.654;37.592;2023-01-29T14:52:27;98856.06;;;-3.03;97.42
35443;BME280;21561;55.654;37.592;2023-01-29T14:54:58;98848.47;;;-3.03;97.04
35443;BME280;21561;55.654;37.592;2023-01-29T14:57:29;98848.34;;;-3.06;97.32
35443;BME280;21561;55.654;37.592;2023-01-29T14:59:59;98853.44;;;-3.06;97.20
35443;BME280;21561;55.654;37.592;2023-01-29T15:02:36;98844.91;;;-3.08;97.24
35443;BME280;21561;55.654;37.592;2023-01-29T15:05:07;98838.31;;;-3.03;97.76
35443;BME280;21561;55.654;37.592;2023-01-29T15:10:48;98843.47;;;-3.00;97.74
35443;BME280;21561;55.654;37.592;2023-01-29T15:13:52;98838.38;;;-3.01;97.61
35443;BME280;21561;55.654;37.592;2023-01-29T15:16:24;98842.47;;;-3.05;97.59
35443;BME280;21561;55.654;37.592;2023-01-29T15:19:06;98844.06;;;-3.07;97.84